sensor_id;sensor_type;location;lat;lon;timestamp;P1;durP1;ratioP1;P2;durP2;ratioP2
11797;SDS011;5956;51.428;6.682;2023-12-14T00:00:34;14.13;;;12.60;;
11797;SDS011;5956;51.428;6.682;2023-12-14T00:03:01;12.23;;;10.93;;
11797;SDS011;5956;51.428;6.682;2023-12-14T00:05:27;12.50;;;11.20;;
11797;SDS011;5956;51.428;6.682;2023-12-14T00:07:55;12.00;;;10.60;;
11797;SDS011;5956;51.428;6.682;2023-12-14T00:10:22;12.87;;;11.30;;
11797;SDS011;5956;51.428;6.682;2023-12-14T00:12:48;12.77;;;11.50;;
11797;SDS011;5956;51.428;6.682;2023-12-14T00:15:16;14.10;;;11.30;;
11797;SDS011;5956;51.428;6.682;2023-12-14T00:17:43;13.50;;;12.10;;
11797;SDS011;5956;51.428;6.682;2023-12-14T00:20:09;13.73;;;12.37;;
11797;SDS011;5956;51.428;6.682;2023-12-14T00:22:39;13.63;;;11.63;;
11797;SDS011;5956;51.428;6.682;2023-12-14T00:25:07;12.50;;;11.03;;
11797;SDS011;5956;51.428;6.682;2023-12-14T00:27:34;11.77;;;10.57;;
11797;SDS011;5956;51.428;6.682;2023-12-14T00:30:01;12.53;;;11.23;;
11797;SDS011;5956;51.428;6.682;2023-12-14T00:32:27;10.90;;;9.80;;
11797;SDS011;5956;51.428;6.682;2023-12-14T00:34:54;11.97;;;10.57;;
11797;SDS011;5956;51.428;6.682;2023-12-14T00:37:20;12.00;;;10.53;;
11797;SDS011;5956;51.428;6.682;2023-12-14T00:39:47;12.17;;;10.90;;
11797;SDS011;5956;51.428;6.682;2023-12-14T00:42:14;12.37;;;11.07;;
11797;SDS011;5956;51.428;6.682;2023-12-14T00:44:41;12.60;;;11.30;;
11797;SDS011;5956;51.428;6.682;2023-12-14T00:47:07;12.40;;;10.97;;
11797;SDS011;5956;51.428;6.682;2023-12-14T00:49:34;12.93;;;11.63;;
11797;SDS011;5956;51.428;6.682;2023-12-14T00:52:00;11.77;;;10.57;;
11797;SDS011;5956;51.428;6.682;2023-12-14T00:54:27;12.27;;;11.07;;
11797;SDS011;5956;51.428;6.682;2023-12-14T00:56:54;12.57;;;11.27;;
11797;SDS011;5956;51.428;6.682;2023-12-14T00:59:21;12.90;;;11.60;;
11797;SDS011;5956;51.428;6.682;2023-12-14T01:01:48;13.07;;;11.77;;
11797;SDS011;5956;51.428;6.682;2023-12-14T01:04:14;12.77;;;11.47;;
11797;SDS011;5956;51.428;6.682;2023-12-14T01:06:44;13.93;;;11.87;;
11797;SDS011;5956;51.428;6.682;2023-12-14T01:09:10;13.73;;;11.73;;
11797;SDS011;5956;51.428;6.682;2023-12-14T01:11:37;13.23;;;11.83;;
11797;SDS011;5956;51.428;6.682;2023-12-14T01:14:03;12.17;;;10.97;;
11797;SDS011;5956;51.428;6.682;2023-12-14T01:16:31;12.30;;;10.90;;
11797;SDS011;5956;51.428;6.682;2023-12-14T01:18:58;11.97;;;10.77;;
11797;SDS011;5956;51.428;6.682;2023-12-14T01:21:24;11.73;;;10.63;;
11797;SDS011;5956;51.428;6.682;2023-12-14T01:23:51;14.60;;;12.93;;
11797;SDS011;5956;51.428;6.682;2023-12-14T01:26:17;16.63;;;13.93;;
11797;SDS011;5956;51.428;6.682;2023-12-14T01:28:44;16.33;;;13.57;;
11797;SDS011;5956;51.428;6.682;2023-12-14T01:31:10;15.47;;;12.40;;
11797;SDS011;5956;51.428;6.682;2023-12-14T01:33:38;15.83;;;12.70;;
11797;SDS011;5956;51.428;6.682;2023-12-14T01:36:05;14.37;;;12.87;;
11797;SDS011;5956;51.428;6.682;2023-12-14T01:38:32;14.30;;;12.80;;
11797;SDS011;5956;51.428;6.682;2023-12-14T01:40:58;15.07;;;13.57;;
11797;SDS011;5956;51.428;6.682;2023-12-14T01:43:25;13.47;;;12.07;;
11797;SDS011;5956;51.428;6.682;2023-12-14T01:45:52;16.87;;;14.10;;
11797;SDS011;5956;51.428;6.682;2023-12-14T01:48:18;16.37;;;14.60;;
11797;SDS011;5956;51.428;6.682;2023-12-14T01:50:46;16.40;;;14.67;;
11797;SDS011;5956;51.428;6.682;2023-12-14T01:53:12;17.53;;;15.67;;
11797;SDS011;5956;51.428;6.682;2023-12-14T01:55:39;18.53;;;16.13;;
11797;SDS011;5956;51.428;6.682;2023-12-14T01:58:05;18.67;;;16.20;;
11797;SDS011;5956;51.428;6.682;2023-12-14T02:00:34;16.83;;;14.73;;
11797;SDS011;5956;51.428;6.682;2023-12-14T02:03:02;20.13;;;16.40;;
11797;SDS011;5956;51.428;6.682;2023-12-14T02:05:29;20.37;;;16.77;;
11797;SDS011;5956;51.428;6.682;2023-12-14T02:07:57;20.00;;;16.83;;
11797;SDS011;5956;51.428;6.682;2023-12-14T02:10:24;17.60;;;15.40;;
11797;SDS011;5956;51.428;6.682;2023-12-14T02:12:50;18.23;;;16.33;;
11797;SDS011;5956;51.428;6.682;2023-12-14T02:15:17;19.83;;;16.97;;
11797;SDS011;5956;51.428;6.682;2023-12-14T02:17:43;19.50;;;17.43;;
11797;SDS011;5956;51.428;6.682;2023-12-14T02:20:10;18.77;;;16.87;;
11797;SDS011;5956;51.428;6.682;2023-12-14T02:22:49;21.63;;;16.70;;
11797;SDS011;5956;51.428;6.682;2023-12-14T02:25:16;19.03;;;16.47;;
11797;SDS011;5956;51.428;6.682;2023-12-14T02:27:42;18.20;;;16.23;;
11797;SDS011;5956;51.428;6.682;2023-12-14T02:30:09;17.57;;;15.50;;
11797;SDS011;5956;51.428;6.682;2023-12-14T02:32:36;18.00;;;15.53;;
11797;SDS011;5956;51.428;6.682;2023-12-14T02:35:03;17.33;;;15.33;;
11797;SDS011;5956;51.428;6.682;2023-12-14T02:37:30;16.60;;;14.77;;
11797;SDS011;5956;51.428;6.682;2023-12-14T02:42:26;16.60;;;13.30;;
11797;SDS011;5956;51.428;6.682;2023-12-14T02:44:53;13.70;;;12.30;;
11797;SDS011;5956;51.428;6.682;2023-12-14T02:47:19;14.60;;;13.10;;
11797;SDS011;5956;51.428;6.682;2023-12-14T02:49:46;14.57;;;12.93;;
11797;SDS011;5956;51.428;6.682;2023-12-14T02:52:12;16.90;;;13.77;;
11797;SDS011;5956;51.428;6.682;2023-12-14T02:54:39;14.43;;;12.97;;
11797;SDS011;5956;51.428;6.682;2023-12-14T02:57:05;15.40;;;13.30;;
11797;SDS011;5956;51.428;6.682;2023-12-14T02:59:33;15.93;;;14.10;;
11797;SDS011;5956;51.428;6.682;2023-12-14T03:01:59;15.87;;;13.63;;
11797;SDS011;5956;51.428;6.682;2023-12-14T03:04:26;16.20;;;13.27;;
11797;SDS011;5956;51.428;6.682;2023-12-14T03:06:52;16.00;;;14.17;;
11797;SDS011;5956;51.428;6.682;2023-12-14T03:09:21;17.00;;;14.33;;
11797;SDS011;5956;51.428;6.682;2023-12-14T03:11:47;19.30;;;16.47;;
11797;SDS011;5956;51.428;6.682;2023-12-14T03:14:14;16.93;;;14.80;;
11797;SDS011;5956;51.428;6.682;2023-12-14T03:16:42;17.23;;;15.30;;
11797;SDS011;5956;51.428;6.682;2023-12-14T03:19:08;17.13;;;15.37;;
11797;SDS011;5956;51.428;6.682;2023-12-14T03:21:35;19.43;;;16.13;;
11797;SDS011;5956;51.428;6.682;2023-12-14T03:24:01;21.17;;;16.40;;
11797;SDS011;5956;51.428;6.682;2023-12-14T03:26:28;19.53;;;17.37;;
11797;SDS011;5956;51.428;6.682;2023-12-14T03:28:54;19.53;;;17.00;;
11797;SDS011;5956;51.428;6.682;2023-12-14T03:31:21;19.80;;;16.37;;
11797;SDS011;5956;51.428;6.682;2023-12-14T03:33:49;19.87;;;16.47;;
11797;SDS011;5956;51.428;6.682;2023-12-14T03:36:15;19.27;;;16.40;;
11797;SDS011;5956;51.428;6.682;2023-12-14T03:38:41;21.17;;;16.60;;
11797;SDS011;5956;51.428;6.682;2023-12-14T03:41:08;21.97;;;17.47;;
11797;SDS011;5956;51.428;6.682;2023-12-14T03:43:34;23.87;;;17.97;;
11797;SDS011;5956;51.428;6.682;2023-12-14T03:46:01;20.33;;;17.40;;
11797;SDS011;5956;51.428;6.682;2023-12-14T03:48:27;22.03;;;18.00;;
11797;SDS011;5956;51.428;6.682;2023-12-14T03:50:55;20.23;;;17.40;;
11797;SDS011;5956;51.428;6.682;2023-12-14T03:53:22;23.43;;;18.53;;
11797;SDS011;5956;51.428;6.682;2023-12-14T03:55:48;20.80;;;18.37;;
11797;SDS011;5956;51.428;6.682;2023-12-14T03:58:15;22.67;;;18.20;;
11797;SDS011;5956;51.428;6.682;2023-12-14T04:00:41;21.77;;;17.80;;
11797;SDS011;5956;51.428;6.682;2023-12-14T04:03:08;20.73;;;16.70;;
11797;SDS011;5956;51.428;6.682;2023-12-14T04:05:35;21.50;;;17.80;;
11797;SDS011;5956;51.428;6.682;2023-12-14T04:08:03;22.27;;;17.20;;
11797;SDS011;5956;51.428;6.682;2023-12-14T04:10:29;20.33;;;16.97;;
11797;SDS011;5956;51.428;6.682;2023-12-14T04:12:56;21.10;;;17.43;;
11797;SDS011;5956;51.428;6.682;2023-12-14T04:15:23;20.47;;;17.10;;
11797;SDS011;5956;51.428;6.682;2023-12-14T04:17:49;20.87;;;17.67;;
11797;SDS011;5956;51.428;6.682;2023-12-14T04:20:15;21.33;;;17.70;;
11797;SDS011;5956;51.428;6.682;2023-12-14T04:22:42;23.97;;;19.57;;
11797;SDS011;5956;51.428;6.682;2023-12-14T04:25:10;22.27;;;18.33;;
11797;SDS011;5956;51.428;6.682;2023-12-14T04:27:37;22.10;;;18.07;;
11797;SDS011;5956;51.428;6.682;2023-12-14T04:30:04;22.63;;;18.63;;
11797;SDS011;5956;51.428;6.682;2023-12-14T04:32:35;22.60;;;19.53;;
11797;SDS011;5956;51.428;6.682;2023-12-14T04:35:01;24.83;;;19.40;;
11797;SDS011;5956;51.428;6.682;2023-12-14T04:37:28;24.23;;;18.33;;
11797;SDS011;5956;51.428;6.682;2023-12-14T04:39:55;24.80;;;21.50;;
11797;SDS011;5956;51.428;6.682;2023-12-14T04:42:23;28.13;;;21.73;;
11797;SDS011;5956;51.428;6.682;2023-12-14T04:44:49;31.80;;;22.73;;
11797;SDS011;5956;51.428;6.682;2023-12-14T04:47:16;28.17;;;21.80;;
11797;SDS011;5956;51.428;6.682;2023-12-14T04:49:43;26.17;;;21.73;;
11797;SDS011;5956;51.428;6.682;2023-12-14T04:52:09;25.47;;;20.87;;
11797;SDS011;5956;51.428;6.682;2023-12-14T04:54:36;23.00;;;20.20;;
11797;SDS011;5956;51.428;6.682;2023-12-14T04:57:05;23.40;;;18.80;;
11797;SDS011;5956;51.428;6.682;2023-12-14T04:59:33;22.90;;;18.43;;
11797;SDS011;5956;51.428;6.682;2023-12-14T05:01:59;22.90;;;18.20;;
11797;SDS011;5956;51.428;6.682;2023-12-14T05:04:26;23.43;;;18.27;;
11797;SDS011;5956;51.428;6.682;2023-12-14T05:06:52;23.30;;;18.17;;
11797;SDS011;5956;51.428;6.682;2023-12-14T05:09:19;21.70;;;16.30;;
11797;SDS011;5956;51.428;6.682;2023-12-14T05:11:45;18.83;;;16.20;;
11797;SDS011;5956;51.428;6.682;2023-12-14T05:14:12;19.90;;;16.87;;
11797;SDS011;5956;51.428;6.682;2023-12-14T05:16:40;21.37;;;16.80;;
11797;SDS011;5956;51.428;6.682;2023-12-14T05:19:06;21.00;;;17.60;;
11797;SDS011;5956;51.428;6.682;2023-12-14T05:21:33;20.87;;;16.93;;
11797;SDS011;5956;51.428;6.682;2023-12-14T05:23:59;19.57;;;16.73;;
11797;SDS011;5956;51.428;6.682;2023-12-14T05:26:26;22.47;;;17.87;;
11797;SDS011;5956;51.428;6.682;2023-12-14T05:28:52;20.83;;;17.10;;
11797;SDS011;5956;51.428;6.682;2023-12-14T05:31:19;24.83;;;18.53;;
11797;SDS011;5956;51.428;6.682;2023-12-14T05:33:47;22.23;;;18.67;;
11797;SDS011;5956;51.428;6.682;2023-12-14T05:36:13;26.07;;;19.37;;
11797;SDS011;5956;51.428;6.682;2023-12-14T05:38:40;24.20;;;20.07;;
11797;SDS011;5956;51.428;6.682;2023-12-14T05:41:08;25.07;;;19.90;;
11797;SDS011;5956;51.428;6.682;2023-12-14T05:43:35;25.90;;;20.70;;
11797;SDS011;5956;51.428;6.682;2023-12-14T05:46:02;25.47;;;20.00;;
11797;SDS011;5956;51.428;6.682;2023-12-14T05:48:30;26.33;;;20.63;;
11797;SDS011;5956;51.428;6.682;2023-12-14T05:50:59;29.67;;;24.13;;
11797;SDS011;5956;51.428;6.682;2023-12-14T05:53:27;30.37;;;22.43;;
11797;SDS011;5956;51.428;6.682;2023-12-14T05:55:54;28.93;;;21.13;;
11797;SDS011;5956;51.428;6.682;2023-12-14T05:58:21;30.47;;;23.50;;
11797;SDS011;5956;51.428;6.682;2023-12-14T06:00:48;31.23;;;23.23;;
11797;SDS011;5956;51.428;6.682;2023-12-14T06:03:15;30.67;;;23.47;;
11797;SDS011;5956;51.428;6.682;2023-12-14T06:05:42;32.23;;;23.83;;
11797;SDS011;5956;51.428;6.682;2023-12-14T06:08:10;34.40;;;26.37;;
11797;SDS011;5956;51.428;6.682;2023-12-14T06:10:37;36.53;;;26.83;;
11797;SDS011;5956;51.428;6.682;2023-12-14T06:13:04;33.00;;;24.77;;
11797;SDS011;5956;51.428;6.682;2023-12-14T06:15:31;38.70;;;24.53;;
11797;SDS011;5956;51.428;6.682;2023-12-14T06:17:57;32.67;;;23.20;;
11797;SDS011;5956;51.428;6.682;2023-12-14T06:20:24;29.77;;;23.73;;
11797;SDS011;5956;51.428;6.682;2023-12-14T06:22:51;31.77;;;22.57;;
11797;SDS011;5956;51.428;6.682;2023-12-14T06:25:18;30.83;;;21.93;;
11797;SDS011;5956;51.428;6.682;2023-12-14T06:27:45;29.77;;;22.33;;
11797;SDS011;5956;51.428;6.682;2023-12-14T06:30:15;28.00;;;21.23;;
11797;SDS011;5956;51.428;6.682;2023-12-14T06:32:41;30.40;;;21.70;;
11797;SDS011;5956;51.428;6.682;2023-12-14T06:35:08;29.53;;;22.17;;
11797;SDS011;5956;51.428;6.682;2023-12-14T06:37:34;28.00;;;22.97;;
11797;SDS011;5956;51.428;6.682;2023-12-14T06:40:01;34.03;;;24.37;;
11797;SDS011;5956;51.428;6.682;2023-12-14T06:42:29;33.93;;;25.17;;
11797;SDS011;5956;51.428;6.682;2023-12-14T06:44:56;29.57;;;23.87;;
11797;SDS011;5956;51.428;6.682;2023-12-14T06:47:22;27.63;;;22.80;;
11797;SDS011;5956;51.428;6.682;2023-12-14T06:49:49;28.83;;;22.83;;
11797;SDS011;5956;51.428;6.682;2023-12-14T06:52:15;29.03;;;24.20;;
11797;SDS011;5956;51.428;6.682;2023-12-14T06:54:42;26.60;;;22.30;;
11797;SDS011;5956;51.428;6.682;2023-12-14T06:57:08;31.23;;;24.73;;
11797;SDS011;5956;51.428;6.682;2023-12-14T06:59:36;27.07;;;23.07;;
11797;SDS011;5956;51.428;6.682;2023-12-14T07:02:03;28.40;;;24.23;;
11797;SDS011;5956;51.428;6.682;2023-12-14T07:04:29;29.87;;;23.70;;
11797;SDS011;5956;51.428;6.682;2023-12-14T07:06:56;28.63;;;22.53;;
11797;SDS011;5956;51.428;6.682;2023-12-14T07:09:23;28.70;;;23.43;;
11797;SDS011;5956;51.428;6.682;2023-12-14T07:11:51;30.63;;;23.23;;
11797;SDS011;5956;51.428;6.682;2023-12-14T07:14:18;33.40;;;26.33;;
11797;SDS011;5956;51.428;6.682;2023-12-14T07:16:47;33.37;;;25.73;;
11797;SDS011;5956;51.428;6.682;2023-12-14T07:19:13;35.40;;;27.67;;
11797;SDS011;5956;51.428;6.682;2023-12-14T07:21:40;36.03;;;27.87;;
11797;SDS011;5956;51.428;6.682;2023-12-14T07:24:07;39.17;;;29.50;;
11797;SDS011;5956;51.428;6.682;2023-12-14T07:26:33;35.73;;;28.03;;
11797;SDS011;5956;51.428;6.682;2023-12-14T07:29:00;36.73;;;27.30;;
11797;SDS011;5956;51.428;6.682;2023-12-14T07:31:27;34.53;;;27.97;;
11797;SDS011;5956;51.428;6.682;2023-12-14T07:33:56;42.70;;;30.17;;
11797;SDS011;5956;51.428;6.682;2023-12-14T07:36:24;37.43;;;28.47;;
11797;SDS011;5956;51.428;6.682;2023-12-14T07:38:50;39.97;;;30.17;;
11797;SDS011;5956;51.428;6.682;2023-12-14T07:41:17;38.17;;;29.50;;
11797;SDS011;5956;51.428;6.682;2023-12-14T07:43:44;41.13;;;30.47;;
11797;SDS011;5956;51.428;6.682;2023-12-14T07:46:10;38.77;;;29.10;;
11797;SDS011;5956;51.428;6.682;2023-12-14T07:48:37;39.60;;;29.90;;
11797;SDS011;5956;51.428;6.682;2023-12-14T07:51:05;38.63;;;29.17;;
11797;SDS011;5956;51.428;6.682;2023-12-14T07:53:32;35.23;;;28.40;;
11797;SDS011;5956;51.428;6.682;2023-12-14T07:55:58;37.23;;;28.60;;
11797;SDS011;5956;51.428;6.682;2023-12-14T07:58:27;33.17;;;26.70;;
11797;SDS011;5956;51.428;6.682;2023-12-14T08:00:54;31.90;;;25.40;;
11797;SDS011;5956;51.428;6.682;2023-12-14T08:03:20;29.10;;;24.77;;
11797;SDS011;5956;51.428;6.682;2023-12-14T08:05:47;31.87;;;25.30;;
11797;SDS011;5956;51.428;6.682;2023-12-14T08:08:17;29.70;;;24.90;;
11797;SDS011;5956;51.428;6.682;2023-12-14T08:10:44;31.80;;;25.63;;
11797;SDS011;5956;51.428;6.682;2023-12-14T08:13:10;29.90;;;24.50;;
11797;SDS011;5956;51.428;6.682;2023-12-14T08:15:37;32.07;;;25.47;;
11797;SDS011;5956;51.428;6.682;2023-12-14T08:18:03;32.03;;;24.50;;
11797;SDS011;5956;51.428;6.682;2023-12-14T08:20:30;27.40;;;22.97;;
11797;SDS011;5956;51.428;6.682;2023-12-14T08:22:57;27.30;;;23.47;;
11797;SDS011;5956;51.428;6.682;2023-12-14T08:25:25;29.27;;;23.73;;
11797;SDS011;5956;51.428;6.682;2023-12-14T08:27:52;28.50;;;23.67;;
11797;SDS011;5956;51.428;6.682;2023-12-14T08:30:18;28.60;;;22.63;;
11797;SDS011;5956;51.428;6.682;2023-12-14T08:32:46;27.07;;;22.97;;
11797;SDS011;5956;51.428;6.682;2023-12-14T08:35:12;28.13;;;22.50;;
11797;SDS011;5956;51.428;6.682;2023-12-14T08:37:39;29.07;;;24.40;;
11797;SDS011;5956;51.428;6.682;2023-12-14T08:40:06;28.70;;;23.53;;
11797;SDS011;5956;51.428;6.682;2023-12-14T08:42:35;27.77;;;22.90;;
11797;SDS011;5956;51.428;6.682;2023-12-14T08:45:01;27.93;;;22.57;;
11797;SDS011;5956;51.428;6.682;2023-12-14T08:47:28;29.53;;;23.80;;
11797;SDS011;5956;51.428;6.682;2023-12-14T08:49:55;29.00;;;22.57;;
11797;SDS011;5956;51.428;6.682;2023-12-14T08:52:21;23.77;;;20.87;;
11797;SDS011;5956;51.428;6.682;2023-12-14T08:54:48;29.63;;;22.70;;
11797;SDS011;5956;51.428;6.682;2023-12-14T08:57:14;25.87;;;22.07;;
11797;SDS011;5956;51.428;6.682;2023-12-14T08:59:42;25.47;;;20.53;;
11797;SDS011;5956;51.428;6.682;2023-12-14T09:02:09;26.00;;;21.40;;
11797;SDS011;5956;51.428;6.682;2023-12-14T09:04:35;25.80;;;22.47;;
11797;SDS011;5956;51.428;6.682;2023-12-14T09:07:02;23.00;;;19.87;;
11797;SDS011;5956;51.428;6.682;2023-12-14T09:09:30;26.83;;;21.47;;
11797;SDS011;5956;51.428;6.682;2023-12-14T09:11:57;24.03;;;20.67;;
11797;SDS011;5956;51.428;6.682;2023-12-14T09:14:24;23.57;;;20.13;;
11797;SDS011;5956;51.428;6.682;2023-12-14T09:16:52;25.80;;;21.47;;
11797;SDS011;5956;51.428;6.682;2023-12-14T09:19:18;21.67;;;19.10;;
11797;SDS011;5956;51.428;6.682;2023-12-14T09:21:45;23.43;;;20.93;;
11797;SDS011;5956;51.428;6.682;2023-12-14T09:24:11;22.53;;;19.63;;
11797;SDS011;5956;51.428;6.682;2023-12-14T09:26:38;22.70;;;19.80;;
11797;SDS011;5956;51.428;6.682;2023-12-14T09:29:05;22.20;;;19.73;;
11797;SDS011;5956;51.428;6.682;2023-12-14T09:31:32;21.27;;;18.53;;
11797;SDS011;5956;51.428;6.682;2023-12-14T09:34:00;21.67;;;18.73;;
11797;SDS011;5956;51.428;6.682;2023-12-14T09:36:26;21.20;;;18.17;;
11797;SDS011;5956;51.428;6.682;2023-12-14T09:38:53;20.57;;;18.47;;
11797;SDS011;5956;51.428;6.682;2023-12-14T09:41:19;20.40;;;18.20;;
11797;SDS011;5956;51.428;6.682;2023-12-14T09:43:46;19.50;;;17.23;;
11797;SDS011;5956;51.428;6.682;2023-12-14T09:46:12;20.50;;;18.10;;
11797;SDS011;5956;51.428;6.682;2023-12-14T09:48:39;19.13;;;17.17;;
11797;SDS011;5956;51.428;6.682;2023-12-14T09:51:07;19.43;;;16.83;;
11797;SDS011;5956;51.428;6.682;2023-12-14T09:53:34;19.43;;;17.33;;
11797;SDS011;5956;51.428;6.682;2023-12-14T09:56:00;17.60;;;15.83;;
11797;SDS011;5956;51.428;6.682;2023-12-14T09:58:27;16.93;;;15.13;;
11797;SDS011;5956;51.428;6.682;2023-12-14T10:00:58;17.27;;;15.53;;
11797;SDS011;5956;51.428;6.682;2023-12-14T10:03:26;17.50;;;15.70;;
11797;SDS011;5956;51.428;6.682;2023-12-14T10:05:53;16.27;;;14.67;;
11797;SDS011;5956;51.428;6.682;2023-12-14T10:08:22;17.50;;;15.80;;
11797;SDS011;5956;51.428;6.682;2023-12-14T10:10:52;17.60;;;15.53;;
11797;SDS011;5956;51.428;6.682;2023-12-14T10:13:21;16.50;;;14.90;;
11797;SDS011;5956;51.428;6.682;2023-12-14T10:15:48;17.47;;;15.60;;
11797;SDS011;5956;51.428;6.682;2023-12-14T10:18:19;16.40;;;14.77;;
11797;SDS011;5956;51.428;6.682;2023-12-14T10:20:47;16.60;;;14.83;;
11797;SDS011;5956;51.428;6.682;2023-12-14T10:23:14;17.90;;;15.10;;
11797;SDS011;5956;51.428;6.682;2023-12-14T10:25:43;15.70;;;14.10;;
11797;SDS011;5956;51.428;6.682;2023-12-14T10:28:11;15.50;;;13.97;;
11797;SDS011;5956;51.428;6.682;2023-12-14T10:30:38;16.70;;;15.00;;
11797;SDS011;5956;51.428;6.682;2023-12-14T10:33:05;15.70;;;14.03;;
11797;SDS011;5956;51.428;6.682;2023-12-14T10:35:32;15.67;;;14.07;;
11797;SDS011;5956;51.428;6.682;2023-12-14T10:38:01;15.90;;;14.20;;
11797;SDS011;5956;51.428;6.682;2023-12-14T10:40:29;16.33;;;14.53;;
11797;SDS011;5956;51.428;6.682;2023-12-14T10:42:58;14.83;;;13.23;;
11797;SDS011;5956;51.428;6.682;2023-12-14T10:45:26;16.77;;;14.33;;
11797;SDS011;5956;51.428;6.682;2023-12-14T10:47:55;14.20;;;12.73;;
11797;SDS011;5956;51.428;6.682;2023-12-14T10:50:24;15.00;;;13.27;;
11797;SDS011;5956;51.428;6.682;2023-12-14T10:52:52;15.73;;;13.73;;
11797;SDS011;5956;51.428;6.682;2023-12-14T10:55:21;15.27;;;13.53;;
11797;SDS011;5956;51.428;6.682;2023-12-14T10:57:49;15.97;;;13.17;;
11797;SDS011;5956;51.428;6.682;2023-12-14T11:00:19;13.80;;;12.33;;
11797;SDS011;5956;51.428;6.682;2023-12-14T11:02:46;20.70;;;15.33;;
11797;SDS011;5956;51.428;6.682;2023-12-14T11:05:13;15.40;;;13.73;;
11797;SDS011;5956;51.428;6.682;2023-12-14T11:07:45;16.83;;;13.17;;
11797;SDS011;5956;51.428;6.682;2023-12-14T11:10:11;15.90;;;12.47;;
11797;SDS011;5956;51.428;6.682;2023-12-14T11:12:37;14.07;;;11.63;;
11797;SDS011;5956;51.428;6.682;2023-12-14T11:15:05;13.47;;;10.83;;
11797;SDS011;5956;51.428;6.682;2023-12-14T11:17:33;12.00;;;10.73;;
11797;SDS011;5956;51.428;6.682;2023-12-14T11:20:13;12.17;;;10.87;;
11797;SDS011;5956;51.428;6.682;2023-12-14T11:22:50;12.07;;;10.87;;
11797;SDS011;5956;51.428;6.682;2023-12-14T11:25:17;12.10;;;10.53;;
11797;SDS011;5956;51.428;6.682;2023-12-14T11:27:44;13.03;;;11.73;;
11797;SDS011;5956;51.428;6.682;2023-12-14T11:30:12;13.50;;;12.10;;
11797;SDS011;5956;51.428;6.682;2023-12-14T11:32:42;13.37;;;11.70;;
11797;SDS011;5956;51.428;6.682;2023-12-14T11:35:09;13.80;;;11.40;;
11797;SDS011;5956;51.428;6.682;2023-12-14T11:37:37;15.40;;;11.30;;
11797;SDS011;5956;51.428;6.682;2023-12-14T11:40:05;12.80;;;10.43;;
11797;SDS011;5956;51.428;6.682;2023-12-14T11:42:34;14.50;;;11.40;;
11797;SDS011;5956;51.428;6.682;2023-12-14T11:45:01;12.77;;;11.50;;
11797;SDS011;5956;51.428;6.682;2023-12-14T11:47:29;13.60;;;11.40;;
11797;SDS011;5956;51.428;6.682;2023-12-14T11:49:57;16.20;;;11.83;;
11797;SDS011;5956;51.428;6.682;2023-12-14T11:52:24;15.43;;;11.60;;
11797;SDS011;5956;51.428;6.682;2023-12-14T11:54:51;14.03;;;12.07;;
11797;SDS011;5956;51.428;6.682;2023-12-14T11:57:18;13.43;;;11.27;;
11797;SDS011;5956;51.428;6.682;2023-12-14T11:59:45;14.10;;;11.43;;
11797;SDS011;5956;51.428;6.682;2023-12-14T12:02:11;16.67;;;12.57;;
11797;SDS011;5956;51.428;6.682;2023-12-14T12:04:38;13.63;;;11.30;;
11797;SDS011;5956;51.428;6.682;2023-12-14T12:07:17;13.33;;;11.60;;
11797;SDS011;5956;51.428;6.682;2023-12-14T12:09:43;10.57;;;9.57;;
11797;SDS011;5956;51.428;6.682;2023-12-14T12:12:10;11.43;;;10.30;;
11797;SDS011;5956;51.428;6.682;2023-12-14T12:14:37;12.60;;;11.27;;
11797;SDS011;5956;51.428;6.682;2023-12-14T12:17:04;12.10;;;9.37;;
11797;SDS011;5956;51.428;6.682;2023-12-14T12:19:32;9.87;;;8.87;;
11797;SDS011;5956;51.428;6.682;2023-12-14T12:21:58;10.63;;;9.50;;
11797;SDS011;5956;51.428;6.682;2023-12-14T12:24:27;10.13;;;9.17;;
11797;SDS011;5956;51.428;6.682;2023-12-14T12:26:54;9.20;;;8.37;;
11797;SDS011;5956;51.428;6.682;2023-12-14T12:29:21;9.43;;;8.57;;
11797;SDS011;5956;51.428;6.682;2023-12-14T12:31:48;9.00;;;8.17;;
11797;SDS011;5956;51.428;6.682;2023-12-14T12:34:17;9.40;;;8.50;;
11797;SDS011;5956;51.428;6.682;2023-12-14T12:36:44;8.93;;;7.97;;
11797;SDS011;5956;51.428;6.682;2023-12-14T12:39:11;8.43;;;7.67;;
11797;SDS011;5956;51.428;6.682;2023-12-14T12:41:39;8.80;;;7.13;;
11797;SDS011;5956;51.428;6.682;2023-12-14T12:44:09;17.67;;;14.23;;
11797;SDS011;5956;51.428;6.682;2023-12-14T12:46:36;9.27;;;8.37;;
11797;SDS011;5956;51.428;6.682;2023-12-14T12:49:03;8.50;;;7.70;;
11797;SDS011;5956;51.428;6.682;2023-12-14T12:51:31;9.67;;;7.10;;
11797;SDS011;5956;51.428;6.682;2023-12-14T12:53:58;7.40;;;6.73;;
11797;SDS011;5956;51.428;6.682;2023-12-14T12:56:26;7.40;;;6.70;;
11797;SDS011;5956;51.428;6.682;2023-12-14T12:58:54;7.50;;;6.57;;
11797;SDS011;5956;51.428;6.682;2023-12-14T13:01:21;7.13;;;6.53;;
11797;SDS011;5956;51.428;6.682;2023-12-14T13:03:51;6.33;;;5.83;;
11797;SDS011;5956;51.428;6.682;2023-12-14T13:06:17;7.57;;;6.57;;
11797;SDS011;5956;51.428;6.682;2023-12-14T13:08:44;6.47;;;5.87;;
11797;SDS011;5956;51.428;6.682;2023-12-14T13:11:11;7.10;;;6.40;;
11797;SDS011;5956;51.428;6.682;2023-12-14T13:13:38;6.40;;;5.90;;
11797;SDS011;5956;51.428;6.682;2023-12-14T13:16:08;7.00;;;6.37;;
11797;SDS011;5956;51.428;6.682;2023-12-14T13:18:35;6.50;;;5.90;;
11797;SDS011;5956;51.428;6.682;2023-12-14T13:21:04;6.93;;;6.23;;
11797;SDS011;5956;51.428;6.682;2023-12-14T13:23:31;6.50;;;6.00;;
11797;SDS011;5956;51.428;6.682;2023-12-14T13:25:58;6.60;;;6.00;;
11797;SDS011;5956;51.428;6.682;2023-12-14T13:28:25;10.00;;;9.00;;
11797;SDS011;5956;51.428;6.682;2023-12-14T13:30:52;8.40;;;7.50;;
11797;SDS011;5956;51.428;6.682;2023-12-14T13:33:20;8.00;;;7.17;;
11797;SDS011;5956;51.428;6.682;2023-12-14T13:35:47;7.57;;;6.90;;
11797;SDS011;5956;51.428;6.682;2023-12-14T13:38:13;7.27;;;6.67;;
11797;SDS011;5956;51.428;6.682;2023-12-14T13:40:40;8.40;;;7.37;;
11797;SDS011;5956;51.428;6.682;2023-12-14T13:43:06;8.03;;;7.33;;
11797;SDS011;5956;51.428;6.682;2023-12-14T13:45:35;7.87;;;7.17;;
11797;SDS011;5956;51.428;6.682;2023-12-14T13:48:02;8.47;;;7.70;;
11797;SDS011;5956;51.428;6.682;2023-12-14T13:50:30;9.03;;;8.17;;
11797;SDS011;5956;51.428;6.682;2023-12-14T13:52:57;9.07;;;8.17;;
11797;SDS011;5956;51.428;6.682;2023-12-14T13:55:24;9.17;;;7.70;;
11797;SDS011;5956;51.428;6.682;2023-12-14T13:57:50;8.83;;;7.93;;
11797;SDS011;5956;51.428;6.682;2023-12-14T14:00:17;9.73;;;8.50;;
11797;SDS011;5956;51.428;6.682;2023-12-14T14:02:45;8.87;;;8.03;;
11797;SDS011;5956;51.428;6.682;2023-12-14T14:05:12;9.60;;;8.53;;
11797;SDS011;5956;51.428;6.682;2023-12-14T14:07:40;9.20;;;8.30;;
11797;SDS011;5956;51.428;6.682;2023-12-14T14:10:07;13.83;;;12.17;;
11797;SDS011;5956;51.428;6.682;2023-12-14T14:12:35;10.13;;;9.13;;
11797;SDS011;5956;51.428;6.682;2023-12-14T14:15:05;10.50;;;8.73;;
11797;SDS011;5956;51.428;6.682;2023-12-14T14:17:31;9.53;;;8.63;;
11797;SDS011;5956;51.428;6.682;2023-12-14T14:19:58;8.87;;;8.03;;
11797;SDS011;5956;51.428;6.682;2023-12-14T14:22:25;8.93;;;8.07;;
11797;SDS011;5956;51.428;6.682;2023-12-14T14:24:53;9.63;;;8.63;;
11797;SDS011;5956;51.428;6.682;2023-12-14T14:27:20;8.87;;;7.97;;
11797;SDS011;5956;51.428;6.682;2023-12-14T14:29:46;9.53;;;8.63;;
11797;SDS011;5956;51.428;6.682;2023-12-14T14:32:13;9.77;;;8.77;;
11797;SDS011;5956;51.428;6.682;2023-12-14T14:34:40;10.07;;;9.17;;
11797;SDS011;5956;51.428;6.682;2023-12-14T14:37:07;9.43;;;8.43;;
11797;SDS011;5956;51.428;6.682;2023-12-14T14:39:36;9.30;;;8.50;;